sensor_id;sensor_type;location;lat;lon;timestamp;temperature;humidity
30865;DHT22;17574;49.418;11.038;2022-10-22T00:00:55;13.90;97.30
30865;DHT22;17574;49.418;11.038;2022-10-22T00:03:21;13.90;97.40
30865;DHT22;17574;49.418;11.038;2022-10-22T00:05:48;13.90;97.20
30865;DHT22;17574;49.418;11.038;2022-10-22T00:08:15;13.90;97.10
30865;DHT22;17574;49.418;11.038;2022-10-22T00:10:42;13.90;97.10
30865;DHT22;17574;49.418;11.038;2022-10-22T00:13:09;13.90;97.20
30865;DHT22;17574;49.418;11.038;2022-10-22T00:15:36;13.90;97.30
30865;DHT22;17574;49.418;11.038;2022-10-22T00:18:02;13.90;97.20
30865;DHT22;17574;49.418;11.038;2022-10-22T00:20:29;13.90;97.30
30865;DHT22;17574;49.418;11.038;2022-10-22T00:22:55;13.90;97.40
30865;DHT22;17574;49.418;11.038;2022-10-22T00:25:22;13.90;97.50
30865;DHT22;17574;49.418;11.038;2022-10-22T00:27:49;13.90;97.60
30865;DHT22;17574;49.418;11.038;2022-10-22T00:30:15;13.90;97.60
30865;DHT22;17574;49.418;11.038;2022-10-22T00:32:42;13.90;97.60
30865;DHT22;17574;49.418;11.038;2022-10-22T00:35:09;13.90;97.70
30865;DHT22;17574;49.418;11.038;2022-10-22T00:37:35;13.90;97.80
30865;DHT22;17574;49.418;11.038;2022-10-22T00:40:02;13.90;97.90
30865;DHT22;17574;49.418;11.038;2022-10-22T00:42:29;13.90;98.00
30865;DHT22;17574;49.418;11.038;2022-10-22T00:47:26;13.90;98.20
30865;DHT22;17574;49.418;11.038;2022-10-22T00:49:54;13.90;98.40
30865;DHT22;17574;49.418;11.038;2022-10-22T00:52:21;13.90;98.50
30865;DHT22;17574;49.418;11.038;2022-10-22T00:54:48;14.00;98.70
30865;DHT22;17574;49.418;11.038;2022-10-22T00:57:16;14.00;98.70
30865;DHT22;17574;49.418;11.038;2022-10-22T00:59:43;14.00;98.80
30865;DHT22;17574;49.418;11.038;2022-10-22T01:02:10;14.00;98.70
30865;DHT22;17574;49.418;11.038;2022-10-22T01:04:36;14.00;98.80
30865;DHT22;17574;49.418;11.038;2022-10-22T01:07:03;14.00;98.80
30865;DHT22;17574;49.418;11.038;2022-10-22T01:19:58;14.00;98.90
30865;DHT22;17574;49.418;11.038;2022-10-22T01:22:29;14.10;99.10
30865;DHT22;17574;49.418;11.038;2022-10-22T01:30:37;14.20;99.20
30865;DHT22;17574;49.418;11.038;2022-10-22T01:33:05;14.20;99.00
30865;DHT22;17574;49.418;11.038;2022-10-22T01:35:36;14.20;98.50
30865;DHT22;17574;49.418;11.038;2022-10-22T01:38:05;14.20;98.30
30865;DHT22;17574;49.418;11.038;2022-10-22T01:40:33;14.20;98.00
30865;DHT22;17574;49.418;11.038;2022-10-22T01:43:02;14.30;97.40
30865;DHT22;17574;49.418;11.038;2022-10-22T01:49:32;14.30;96.70
30865;DHT22;17574;49.418;11.038;2022-10-22T01:51:29;14.30;96.70
30865;DHT22;17574;49.418;11.038;2022-10-22T02:02:03;14.20;94.90
30865;DHT22;17574;49.418;11.038;2022-10-22T02:04:33;14.20;94.90
30865;DHT22;17574;49.418;11.038;2022-10-22T02:07:04;14.20;94.90
30865;DHT22;17574;49.418;11.038;2022-10-22T02:09:31;14.20;94.90
30865;DHT22;17574;49.418;11.038;2022-10-22T02:11:59;14.20;94.70
30865;DHT22;17574;49.418;11.038;2022-10-22T02:14:27;14.10;94.10
30865;DHT22;17574;49.418;11.038;2022-10-22T02:16:54;14.10;94.20
30865;DHT22;17574;49.418;11.038;2022-10-22T02:19:24;14.10;94.00
30865;DHT22;17574;49.418;11.038;2022-10-22T02:21:51;14.00;94.30
30865;DHT22;17574;49.418;11.038;2022-10-22T02:24:18;14.10;94.40
30865;DHT22;17574;49.418;11.038;2022-10-22T02:27:08;14.00;94.40
30865;DHT22;17574;49.418;11.038;2022-10-22T02:29:37;14.00;94.60
30865;DHT22;17574;49.418;11.038;2022-10-22T02:32:05;14.00;94.90
30865;DHT22;17574;49.418;11.038;2022-10-22T02:34:32;13.90;95.10
30865;DHT22;17574;49.418;11.038;2022-10-22T02:36:59;14.00;95.30
30865;DHT22;17574;49.418;11.038;2022-10-22T02:39:26;14.00;95.30
30865;DHT22;17574;49.418;11.038;2022-10-22T02:41:53;14.00;95.40
30865;DHT22;17574;49.418;11.038;2022-10-22T02:44:20;14.00;95.60
30865;DHT22;17574;49.418;11.038;2022-10-22T02:46:47;13.90;95.80
30865;DHT22;17574;49.418;11.038;2022-10-22T02:49:14;13.90;95.90
30865;DHT22;17574;49.418;11.038;2022-10-22T02:51:41;13.90;96.10
30865;DHT22;17574;49.418;11.038;2022-10-22T02:54:07;13.90;96.30
30865;DHT22;17574;49.418;11.038;2022-10-22T02:56:34;13.90;96.40
30865;DHT22;17574;49.418;11.038;2022-10-22T02:59:00;13.90;96.20
30865;DHT22;17574;49.418;11.038;2022-10-22T03:01:27;13.90;95.90
30865;DHT22;17574;49.418;11.038;2022-10-22T03:03:53;13.90;95.50
30865;DHT22;17574;49.418;11.038;2022-10-22T03:06:20;13.90;95.00
30865;DHT22;17574;49.418;11.038;2022-10-22T03:08:47;13.90;95.00
30865;DHT22;17574;49.418;11.038;2022-10-22T03:11:13;13.90;95.20
30865;DHT22;17574;49.418;11.038;2022-10-22T03:13:40;13.90;95.00
30865;DHT22;17574;49.418;11.038;2022-10-22T03:16:07;13.90;95.10
30865;DHT22;17574;49.418;11.038;2022-10-22T03:18:33;13.80;95.70
30865;DHT22;17574;49.418;11.038;2022-10-22T03:21:03;13.90;96.10
30865;DHT22;17574;49.418;11.038;2022-10-22T03:23:31;13.90;96.20
30865;DHT22;17574;49.418;11.038;2022-10-22T03:25:58;13.90;96.50
30865;DHT22;17574;49.418;11.038;2022-10-22T03:28:24;13.80;96.50
30865;DHT22;17574;49.418;11.038;2022-10-22T03:30:52;13.80;96.50
30865;DHT22;17574;49.418;11.038;2022-10-22T03:33:18;13.90;96.50
30865;DHT22;17574;49.418;11.038;2022-10-22T03:35:45;13.90;96.30
30865;DHT22;17574;49.418;11.038;2022-10-22T03:38:12;13.80;96.50
30865;DHT22;17574;49.418;11.038;2022-10-22T03:40:40;13.90;96.50
30865;DHT22;17574;49.418;11.038;2022-10-22T03:43:07;13.80;96.50
30865;DHT22;17574;49.418;11.038;2022-10-22T03:45:33;13.80;96.50
30865;DHT22;17574;49.418;11.038;2022-10-22T03:48:00;13.80;96.50
30865;DHT22;17574;49.418;11.038;2022-10-22T03:50:27;13.80;96.50
30865;DHT22;17574;49.418;11.038;2022-10-22T03:52:53;13.80;96.90
30865;DHT22;17574;49.418;11.038;2022-10-22T03:55:20;13.80;97.20
30865;DHT22;17574;49.418;11.038;2022-10-22T03:57:47;13.80;97.20
30865;DHT22;17574;49.418;11.038;2022-10-22T04:00:13;13.80;97.20
30865;DHT22;17574;49.418;11.038;2022-10-22T04:02:40;13.80;97.10
30865;DHT22;17574;49.418;11.038;2022-10-22T04:05:06;13.80;97.10
30865;DHT22;17574;49.418;11.038;2022-10-22T04:07:33;13.70;97.10
30865;DHT22;17574;49.418;11.038;2022-10-22T04:10:00;13.80;97.10
30865;DHT22;17574;49.418;11.038;2022-10-22T04:12:26;13.80;97.10
30865;DHT22;17574;49.418;11.038;2022-10-22T04:14:53;13.80;97.00
30865;DHT22;17574;49.418;11.038;2022-10-22T04:17:19;13.70;96.80
30865;DHT22;17574;49.418;11.038;2022-10-22T04:19:46;13.70;96.60
30865;DHT22;17574;49.418;11.038;2022-10-22T04:22:12;13.70;96.80
30865;DHT22;17574;49.418;11.038;2022-10-22T04:24:39;13.70;96.60
30865;DHT22;17574;49.418;11.038;2022-10-22T04:27:06;13.70;96.90
30865;DHT22;17574;49.418;11.038;2022-10-22T04:29:32;13.70;96.80
30865;DHT22;17574;49.418;11.038;2022-10-22T04:31:59;13.70;96.50
30865;DHT22;17574;49.418;11.038;2022-10-22T04:34:26;13.70;96.50
30865;DHT22;17574;49.418;11.038;2022-10-22T04:36:53;13.70;96.50
30865;DHT22;17574;49.418;11.038;2022-10-22T04:39:19;13.70;96.50
30865;DHT22;17574;49.418;11.038;2022-10-22T04:41:46;13.70;96.50
30865;DHT22;17574;49.418;11.038;2022-10-22T04:44:13;13.70;96.50
30865;DHT22;17574;49.418;11.038;2022-10-22T04:46:43;13.60;96.40
30865;DHT22;17574;49.418;11.038;2022-10-22T04:49:10;13.60;96.40
30865;DHT22;17574;49.418;11.038;2022-10-22T04:51:36;13.60;96.40
30865;DHT22;17574;49.418;11.038;2022-10-22T04:54:03;13.60;96.40
30865;DHT22;17574;49.418;11.038;2022-10-22T04:56:30;13.60;96.40
30865;DHT22;17574;49.418;11.038;2022-10-22T04:59:01;13.60;96.40
30865;DHT22;17574;49.418;11.038;2022-10-22T05:01:29;13.60;96.40
30865;DHT22;17574;49.418;11.038;2022-10-22T05:03:57;13.60;96.40
30865;DHT22;17574;49.418;11.038;2022-10-22T05:06:24;13.60;96.20
30865;DHT22;17574;49.418;11.038;2022-10-22T05:08:52;13.60;96.00
30865;DHT22;17574;49.418;11.038;2022-10-22T05:11:20;13.60;96.30
30865;DHT22;17574;49.418;11.038;2022-10-22T05:13:47;13.60;96.30
30865;DHT22;17574;49.418;11.038;2022-10-22T05:16:13;13.60;95.80
30865;DHT22;17574;49.418;11.038;2022-10-22T05:18:41;13.60;95.10
30865;DHT22;17574;49.418;11.038;2022-10-22T05:21:08;13.60;94.50
30865;DHT22;17574;49.418;11.038;2022-10-22T05:23:36;13.70;93.70
30865;DHT22;17574;49.418;11.038;2022-10-22T05:26:06;13.60;93.70
30865;DHT22;17574;49.418;11.038;2022-10-22T05:28:33;13.60;93.90
30865;DHT22;17574;49.418;11.038;2022-10-22T05:31:01;13.70;94.10
30865;DHT22;17574;49.418;11.038;2022-10-22T05:33:28;13.60;94.00
30865;DHT22;17574;49.418;11.038;2022-10-22T05:35:55;13.60;94.10
30865;DHT22;17574;49.418;11.038;2022-10-22T05:38:22;13.60;93.90
30865;DHT22;17574;49.418;11.038;2022-10-22T05:41:11;13.60;93.30
30865;DHT22;17574;49.418;11.038;2022-10-22T05:43:36;13.60;92.90
30865;DHT22;17574;49.418;11.038;2022-10-22T05:46:03;13.60;93.00
30865;DHT22;17574;49.418;11.038;2022-10-22T05:48:31;13.50;92.90
30865;DHT22;17574;49.418;11.038;2022-10-22T05:51:03;13.50;92.90
30865;DHT22;17574;49.418;11.038;2022-10-22T05:53:34;13.50;93.20
30865;DHT22;17574;49.418;11.038;2022-10-22T05:56:02;13.50;93.20
30865;DHT22;17574;49.418;11.038;2022-10-22T05:58:29;13.40;93.30
30865;DHT22;17574;49.418;11.038;2022-10-22T06:01:08;13.40;93.40
30865;DHT22;17574;49.418;11.038;2022-10-22T06:03:36;13.40;93.80
30865;DHT22;17574;49.418;11.038;2022-10-22T06:06:11;13.40;94.20
30865;DHT22;17574;49.418;11.038;2022-10-22T06:08:41;13.40;94.20
30865;DHT22;17574;49.418;11.038;2022-10-22T06:11:07;13.40;94.00
30865;DHT22;17574;49.418;11.038;2022-10-22T06:13:34;13.50;94.00
30865;DHT22;17574;49.418;11.038;2022-10-22T06:16:00;13.40;94.10
30865;DHT22;17574;49.418;11.038;2022-10-22T06:18:27;13.40;94.40
30865;DHT22;17574;49.418;11.038;2022-10-22T06:20:53;13.40;94.70
30865;DHT22;17574;49.418;11.038;2022-10-22T06:23:23;13.40;95.10
30865;DHT22;17574;49.418;11.038;2022-10-22T06:25:56;13.40;95.30
30865;DHT22;17574;49.418;11.038;2022-10-22T06:28:23;13.40;95.50
30865;DHT22;17574;49.418;11.038;2022-10-22T06:30:56;13.40;95.60
30865;DHT22;17574;49.418;11.038;2022-10-22T06:33:22;13.40;95.90
30865;DHT22;17574;49.418;11.038;2022-10-22T06:35:49;13.40;96.10
30865;DHT22;17574;49.418;11.038;2022-10-22T06:38:16;13.40;96.20
30865;DHT22;17574;49.418;11.038;2022-10-22T06:40:42;13.40;96.30
30865;DHT22;17574;49.418;11.038;2022-10-22T06:43:10;13.50;96.40
30865;DHT22;17574;49.418;11.038;2022-10-22T06:45:38;13.50;96.50
30865;DHT22;17574;49.418;11.038;2022-10-22T06:48:04;13.50;96.40
30865;DHT22;17574;49.418;11.038;2022-10-22T06:50:34;13.50;96.40
30865;DHT22;17574;49.418;11.038;2022-10-22T06:53:01;13.50;96.40
30865;DHT22;17574;49.418;11.038;2022-10-22T06:55:27;13.50;96.20
30865;DHT22;17574;49.418;11.038;2022-10-22T06:57:54;13.50;96.40
30865;DHT22;17574;49.418;11.038;2022-10-22T07:00:21;13.60;96.40
30865;DHT22;17574;49.418;11.038;2022-10-22T07:02:51;13.70;96.50
30865;DHT22;17574;49.418;11.038;2022-10-22T07:05:25;13.80;96.50
30865;DHT22;17574;49.418;11.038;2022-10-22T07:07:51;13.90;96.50
30865;DHT22;17574;49.418;11.038;2022-10-22T07:10:18;13.90;95.80
30865;DHT22;17574;49.418;11.038;2022-10-22T07:12:45;14.00;95.40
30865;DHT22;17574;49.418;11.038;2022-10-22T07:15:12;14.40;95.10
30865;DHT22;17574;49.418;11.038;2022-10-22T07:17:39;14.30;93.40
30865;DHT22;17574;49.418;11.038;2022-10-22T07:20:10;14.30;93.30
30865;DHT22;17574;49.418;11.038;2022-10-22T07:22:37;14.30;93.30
30865;DHT22;17574;49.418;11.038;2022-10-22T07:25:04;14.40;93.30
30865;DHT22;17574;49.418;11.038;2022-10-22T07:27:32;14.40;93.30
30865;DHT22;17574;49.418;11.038;2022-10-22T07:29:59;14.50;93.30
30865;DHT22;17574;49.418;11.038;2022-10-22T07:32:26;14.50;92.90
30865;DHT22;17574;49.418;11.038;2022-10-22T07:34:53;14.70;92.20
30865;DHT22;17574;49.418;11.038;2022-10-22T07:37:20;14.80;91.50
30865;DHT22;17574;49.418;11.038;2022-10-22T07:39:47;14.80;89.70
30865;DHT22;17574;49.418;11.038;2022-10-22T07:42:14;15.10;87.80
30865;DHT22;17574;49.418;11.038;2022-10-22T07:44:40;15.20;83.00
30865;DHT22;17574;49.418;11.038;2022-10-22T07:47:07;15.40;78.50
30865;DHT22;17574;49.418;11.038;2022-10-22T07:49:34;15.60;77.10
30865;DHT22;17574;49.418;11.038;2022-10-22T07:52:00;16.10;76.20
30865;DHT22;17574;49.418;11.038;2022-10-22T07:54:27;16.80;68.90
30865;DHT22;17574;49.418;11.038;2022-10-22T07:56:53;17.80;53.10
30865;DHT22;17574;49.418;11.038;2022-10-22T07:59:20;18.70;36.60
30865;DHT22;17574;49.418;11.038;2022-10-22T08:01:46;19.30;26.30
30865;DHT22;17574;49.418;11.038;2022-10-22T08:04:13;19.30;22.20
30865;DHT22;17574;49.418;11.038;2022-10-22T08:06:39;19.10;26.20
30865;DHT22;17574;49.418;11.038;2022-10-22T08:09:12;19.10;27.70
30865;DHT22;17574;49.418;11.038;2022-10-22T08:11:39;19.10;26.20
30865;DHT22;17574;49.418;11.038;2022-10-22T08:14:06;18.80;27.20
30865;DHT22;17574;49.418;11.038;2022-10-22T08:16:32;18.60;28.90
30865;DHT22;17574;49.418;11.038;2022-10-22T08:18:59;18.40;30.10
30865;DHT22;17574;49.418;11.038;2022-10-22T08:21:25;18.20;33.80
30865;DHT22;17574;49.418;11.038;2022-10-22T08:23:52;17.90;35.40
30865;DHT22;17574;49.418;11.038;2022-10-22T08:26:19;17.90;38.00
30865;DHT22;17574;49.418;11.038;2022-10-22T08:28:45;18.20;37.10
30865;DHT22;17574;49.418;11.038;2022-10-22T08:31:12;18.70;35.60
30865;DHT22;17574;49.418;11.038;2022-10-22T08:33:38;19.20;29.00
30865;DHT22;17574;49.418;11.038;2022-10-22T08:36:06;19.40;26.00
30865;DHT22;17574;49.418;11.038;2022-10-22T08:38:33;20.10;24.10
30865;DHT22;17574;49.418;11.038;2022-10-22T08:41:08;20.80;18.10
30865;DHT22;17574;49.418;11.038;2022-10-22T08:44:09;21.00;14.10
30865;DHT22;17574;49.418;11.038;2022-10-22T08:49:22;21.60;8.90
30865;DHT22;17574;49.418;11.038;2022-10-22T08:51:49;21.90;6.70
30865;DHT22;17574;49.418;11.038;2022-10-22T08:54:27;22.20;4.40
30865;DHT22;17574;49.418;11.038;2022-10-22T08:59:30;22.50;1.00
30865;DHT22;17574;49.418;11.038;2022-10-22T09:01:58;22.80;1.00
30865;DHT22;17574;49.418;11.038;2022-10-22T09:04:25;23.10;1.00
30865;DHT22;17574;49.418;11.038;2022-10-22T09:06:54;23.60;1.00
30865;DHT22;17574;49.418;11.038;2022-10-22T09:09:22;24.00;1.00
30865;DHT22;17574;49.418;11.038;2022-10-22T09:11:51;23.70;1.00
30865;DHT22;17574;49.418;11.038;2022-10-22T09:14:19;23.70;1.00
30865;DHT22;17574;49.418;11.038;2022-10-22T09:22:07;25.10;1.00
30865;DHT22;17574;49.418;11.038;2022-10-22T09:27:11;27.20;1.00
30865;DHT22;17574;49.418;11.038;2022-10-22T09:29:38;27.60;1.00
30865;DHT22;17574;49.418;11.038;2022-10-22T09:32:05;27.30;1.00
30865;DHT22;17574;49.418;11.038;2022-10-22T09:34:31;27.30;1.00
30865;DHT22;17574;49.418;11.038;2022-10-22T09:37:02;27.50;1.00
30865;DHT22;17574;49.418;11.038;2022-10-22T09:39:39;27.40;1.00
30865;DHT22;17574;49.418;11.038;2022-10-22T09:42:06;27.70;1.00
30865;DHT22;17574;49.418;11.038;2022-10-22T09:44:34;28.00;1.00
30865;DHT22;17574;49.418;11.038;2022-10-22T09:47:04;27.40;1.00
30865;DHT22;17574;49.418;11.038;2022-10-22T09:49:32;26.70;1.00
30865;DHT22;17574;49.418;11.038;2022-10-22T09:51:59;25.90;1.00
30865;DHT22;17574;49.418;11.038;2022-10-22T09:57:15;25.20;1.00
30865;DHT22;17574;49.418;11.038;2022-10-22T09:59:50;25.20;1.00
30865;DHT22;17574;49.418;11.038;2022-10-22T10:02:20;25.30;1.00
30865;DHT22;17574;49.418;11.038;2022-10-22T10:05:04;25.60;1.00
30865;DHT22;17574;49.418;11.038;2022-10-22T10:07:32;27.40;1.00
30865;DHT22;17574;49.418;11.038;2022-10-22T10:09:59;28.90;1.00
30865;DHT22;17574;49.418;11.038;2022-10-22T10:12:40;29.60;1.00
30865;DHT22;17574;49.418;11.038;2022-10-22T10:15:27;30.50;1.00
30865;DHT22;17574;49.418;11.038;2022-10-22T10:23:25;32.40;1.00
30865;DHT22;17574;49.418;11.038;2022-10-22T10:25:59;33.00;1.00
30865;DHT22;17574;49.418;11.038;2022-10-22T10:28:30;33.60;1.00
30865;DHT22;17574;49.418;11.038;2022-10-22T10:46:16;31.60;1.00
30865;DHT22;17574;49.418;11.038;2022-10-22T10:48:47;32.60;1.00
30865;DHT22;17574;49.418;11.038;2022-10-22T10:59:52;32.30;1.00
30865;DHT22;17574;49.418;11.038;2022-10-22T11:07:39;29.00;1.00
30865;DHT22;17574;49.418;11.038;2022-10-22T11:12:43;28.50;1.00
30865;DHT22;17574;49.418;11.038;2022-10-22T11:15:20;28.10;1.00
30865;DHT22;17574;49.418;11.038;2022-10-22T11:17:47;28.10;1.00
30865;DHT22;17574;49.418;11.038;2022-10-22T11:25:46;29.40;1.00
30865;DHT22;17574;49.418;11.038;2022-10-22T11:28:16;30.20;1.00
30865;DHT22;17574;49.418;11.038;2022-10-22T11:30:47;30.90;1.00
30865;DHT22;17574;49.418;11.038;2022-10-22T11:33:17;31.20;1.00
30865;DHT22;17574;49.418;11.038;2022-10-22T11:35:44;31.50;1.00
30865;DHT22;17574;49.418;11.038;2022-10-22T11:38:13;30.60;1.00
30865;DHT22;17574;49.418;11.038;2022-10-22T11:40:49;30.40;1.00
30865;DHT22;17574;49.418;11.038;2022-10-22T11:48:40;32.30;1.00
30865;DHT22;17574;49.418;11.038;2022-10-22T11:51:27;32.70;1.00
30865;DHT22;17574;49.418;11.038;2022-10-22T11:53:54;33.40;1.00
30865;DHT22;17574;49.418;11.038;2022-10-22T11:56:22;34.10;1.00
30865;DHT22;17574;49.418;11.038;2022-10-22T11:58:50;34.30;1.00
30865;DHT22;17574;49.418;11.038;2022-10-22T12:01:24;34.50;1.00
30865;DHT22;17574;49.418;11.038;2022-10-22T12:03:52;33.20;1.00
30865;DHT22;17574;49.418;11.038;2022-10-22T12:06:20;31.60;1.00
30865;DHT22;17574;49.418;11.038;2022-10-22T12:16:27;27.10;1.00
30865;DHT22;17574;49.418;11.038;2022-10-22T12:21:50;25.50;1.00
30865;DHT22;17574;49.418;11.038;2022-10-22T12:24:18;25.00;1.00
30865;DHT22;17574;49.418;11.038;2022-10-22T12:26:45;24.80;1.00
30865;DHT22;17574;49.418;11.038;2022-10-22T12:29:14;24.40;1.00
30865;DHT22;17574;49.418;11.038;2022-10-22T12:31:41;24.50;1.00
30865;DHT22;17574;49.418;11.038;2022-10-22T12:34:12;25.80;1.00
30865;DHT22;17574;49.418;11.038;2022-10-22T12:36:38;27.00;1.00
30865;DHT22;17574;49.418;11.038;2022-10-22T12:39:12;27.80;1.00
30865;DHT22;17574;49.418;11.038;2022-10-22T12:41:39;27.30;1.00
30865;DHT22;17574;49.418;11.038;2022-10-22T12:44:06;26.70;1.00
30865;DHT22;17574;49.418;11.038;2022-10-22T12:46:33;27.10;1.00
30865;DHT22;17574;49.418;11.038;2022-10-22T12:49:02;26.80;1.00
30865;DHT22;17574;49.418;11.038;2022-10-22T12:51:29;27.50;1.00
30865;DHT22;17574;49.418;11.038;2022-10-22T12:54:00;28.30;1.00
30865;DHT22;17574;49.418;11.038;2022-10-22T12:56:28;28.80;1.00
30865;DHT22;17574;49.418;11.038;2022-10-22T12:58:58;28.10;1.00
30865;DHT22;17574;49.418;11.038;2022-10-22T13:01:31;27.70;1.00
30865;DHT22;17574;49.418;11.038;2022-10-22T13:04:04;27.10;1.00
30865;DHT22;17574;49.418;11.038;2022-10-22T13:06:32;26.20;1.00
30865;DHT22;17574;49.418;11.038;2022-10-22T13:11:32;25.10;1.00
30865;DHT22;17574;49.418;11.038;2022-10-22T13:14:00;25.10;1.00
30865;DHT22;17574;49.418;11.038;2022-10-22T13:16:27;25.20;1.00
30865;DHT22;17574;49.418;11.038;2022-10-22T13:18:55;25.00;1.00
30865;DHT22;17574;49.418;11.038;2022-10-22T13:21:37;24.70;1.00
30865;DHT22;17574;49.418;11.038;2022-10-22T13:24:20;24.60;1.00
30865;DHT22;17574;49.418;11.038;2022-10-22T13:26:48;24.50;1.00
30865;DHT22;17574;49.418;11.038;2022-10-22T13:29:16;24.40;1.00
30865;DHT22;17574;49.418;11.038;2022-10-22T13:31:45;24.50;1.00
30865;DHT22;17574;49.418;11.038;2022-10-22T13:34:13;24.60;1.00
30865;DHT22;17574;49.418;11.038;2022-10-22T13:36:42;24.80;1.00
30865;DHT22;17574;49.418;11.038;2022-10-22T13:39:15;24.90;1.00
30865;DHT22;17574;49.418;11.038;2022-10-22T13:41:42;25.10;1.00
30865;DHT22;17574;49.418;11.038;2022-10-22T13:44:08;25.20;1.00
30865;DHT22;17574;49.418;11.038;2022-10-22T13:46:35;25.30;1.00
30865;DHT22;17574;49.418;11.038;2022-10-22T13:49:14;25.30;1.00
30865;DHT22;17574;49.418;11.038;2022-10-22T13:51:42;25.30;1.00
30865;DHT22;17574;49.418;11.038;2022-10-22T13:54:15;25.30;1.00
30865;DHT22;17574;49.418;11.038;2022-10-22T13:56:43;25.20;1.00
30865;DHT22;17574;49.418;11.038;2022-10-22T13:59:09;25.20;1.00
30865;DHT22;17574;49.418;11.038;2022-10-22T14:01:36;25.30;1.00
30865;DHT22;17574;49.418;11.038;2022-10-22T14:04:03;25.30;1.00
30865;DHT22;17574;49.418;11.038;2022-10-22T14:06:31;25.30;1.00
30865;DHT22;17574;49.418;11.038;2022-10-22T14:08:59;25.20;1.00
30865;DHT22;17574;49.418;11.038;2022-10-22T14:11:27;25.20;1.00
30865;DHT22;17574;49.418;11.038;2022-10-22T14:13:56;25.10;1.00
30865;DHT22;17574;49.418;11.038;2022-10-22T14:16:23;25.00;1.00
30865;DHT22;17574;49.418;11.038;2022-10-22T14:18:50;25.00;1.00
30865;DHT22;17574;49.418;11.038;2022-10-22T14:21:17;25.00;1.00
30865;DHT22;17574;49.418;11.038;2022-10-22T14:23:45;25.00;1.00
30865;DHT22;17574;49.418;11.038;2022-10-22T14:26:22;25.20;1.00
30865;DHT22;17574;49.418;11.038;2022-10-22T14:28:49;25.00;1.00
30865;DHT22;17574;49.418;11.038;2022-10-22T14:31:37;25.00;1.00
30865;DHT22;17574;49.418;11.038;2022-10-22T14:34:09;24.70;1.00
30865;DHT22;17574;49.418;11.038;2022-10-22T14:36:36;24.60;1.00
30865;DHT22;17574;49.418;11.038;2022-10-22T14:39:03;24.50;1.00
30865;DHT22;17574;49.418;11.038;2022-10-22T14:41:29;24.40;1.00
30865;DHT22;17574;49.418;11.038;2022-10-22T14:43:56;24.10;1.00
30865;DHT22;17574;49.418;11.038;2022-10-22T14:46:24;24.20;1.00
30865;DHT22;17574;49.418;11.038;2022-10-22T14:48:51;24.10;1.00
30865;DHT22;17574;49.418;11.038;2022-10-22T14:51:18;23.90;1.00
30865;DHT22;17574;49.418;11.038;2022-10-22T14:53:45;23.90;1.00
30865;DHT22;17574;49.418;11.038;2022-10-22T14:56:13;23.90;1.00
30865;DHT22;17574;49.418;11.038;2022-10-22T14:58:40;23.70;1.00
30865;DHT22;17574;49.418;11.038;2022-10-22T15:01:07;23.60;1.00
30865;DHT22;17574;49.418;11.038;2022-10-22T15:03:34;23.50;1.00
30865;DHT22;17574;49.418;11.038;2022-10-22T15:06:01;23.40;1.00
30865;DHT22;17574;49.418;11.038;2022-10-22T15:08:28;23.30;1.00
30865;DHT22;17574;49.418;11.038;2022-10-22T15:11:02;23.30;1.00
30865;DHT22;17574;49.418;11.038;2022-10-22T15:13:29;23.00;1.00
30865;DHT22;17574;49.418;11.038;2022-10-22T15:15:56;23.00;1.00
30865;DHT22;17574;49.418;11.038;2022-10-22T15:18:23;22.80;1.00
30865;DHT22;17574;49.418;11.038;2022-10-22T15:20:53;22.70;1.00
30865;DHT22;17574;49.418;11.038;2022-10-22T15:23:20;22.50;1.00
30865;DHT22;17574;49.418;11.038;2022-10-22T15:25:46;22.30;1.00
30865;DHT22;17574;49.418;11.038;2022-10-22T15:28:13;22.30;1.00
30865;DHT22;17574;49.418;11.038;2022-10-22T15:30:39;22.10;1.00
30865;DHT22;17574;49.418;11.038;2022-10-22T15:33:06;21.80;1.00
30865;DHT22;17574;49.418;11.038;2022-10-22T15:35:33;21.80;1.00
30865;DHT22;17574;49.418;11.038;2022-10-22T15:37:59;21.70;1.00
30865;DHT22;17574;49.418;11.038;2022-10-22T15:40:26;21.60;1.00
30865;DHT22;17574;49.418;11.038;2022-10-22T15:42:52;21.40;1.00
30865;DHT22;17574;49.418;11.038;2022-10-22T15:45:19;21.30;1.00
30865;DHT22;17574;49.418;11.038;2022-10-22T15:47:47;21.20;1.00
30865;DHT22;17574;49.418;11.038;2022-10-22T15:50:15;21.10;1.00
30865;DHT22;17574;49.418;11.038;2022-10-22T15:52:41;21.00;1.00
30865;DHT22;17574;49.418;11.038;2022-10-22T15:55:08;20.90;1.00
30865;DHT22;17574;49.418;11.038;2022-10-22T15:57:36;20.70;1.00
30865;DHT22;17574;49.418;11.038;2022-10-22T16:00:04;20.60;1.00
30865;DHT22;17574;49.418;11.038;2022-10-22T16:02:30;20.60;1.60
30865;DHT22;17574;49.418;11.038;2022-10-22T16:04:57;20.60;1.40
30865;DHT22;17574;49.418;11.038;2022-10-22T16:07:24;20.50;3.10
30865;DHT22;17574;49.418;11.038;2022-10-22T16:09:54;20.50;3.10
30865;DHT22;17574;49.418;11.038;2022-10-22T16:12:21;20.50;2.80
30865;DHT22;17574;49.418;11.038;2022-10-22T16:14:49;20.30;2.90
30865;DHT22;17574;49.418;11.038;2022-10-22T16:17:15;20.30;4.10
30865;DHT22;17574;49.418;11.038;2022-10-22T16:19:42;20.30;5.10
30865;DHT22;17574;49.418;11.038;2022-10-22T16:22:09;20.20;6.50
30865;DHT22;17574;49.418;11.038;2022-10-22T16:24:37;20.10;7.20
30865;DHT22;17574;49.418;11.038;2022-10-22T16:27:06;20.00;6.80
30865;DHT22;17574;49.418;11.038;2022-10-22T16:29:35;19.90;7.70
30865;DHT22;17574;49.418;11.038;2022-10-22T16:32:02;19.50;10.20
30865;DHT22;17574;49.418;11.038;2022-10-22T16:34:28;19.20;14.10
30865;DHT22;17574;49.418;11.038;2022-10-22T16:36:55;18.90;16.60
30865;DHT22;17574;49.418;11.038;2022-10-22T16:39:22;18.60;20.10
30865;DHT22;17574;49.418;11.038;2022-10-22T16:41:49;18.30;24.20
30865;DHT22;17574;49.418;11.038;2022-10-22T16:44:15;18.10;25.40
30865;DHT22;17574;49.418;11.038;2022-10-22T16:46:42;17.90;26.80
30865;DHT22;17574;49.418;11.038;2022-10-22T16:49:09;17.70;29.00
30865;DHT22;17574;49.418;11.038;2022-10-22T16:51:35;17.50;31.40
30865;DHT22;17574;49.418;11.038;2022-10-22T16:54:02;17.40;34.10
30865;DHT22;17574;49.418;11.038;2022-10-22T16:56:33;17.30;34.80
30865;DHT22;17574;49.418;11.038;2022-10-22T16:59:02;17.20;37.30
30865;DHT22;17574;49.418;11.038;2022-10-22T17:01:28;17.00;38.40
30865;DHT22;17574;49.418;11.038;2022-10-22T17:03:57;16.90;40.10
30865;DHT22;17574;49.418;11.038;2022-10-22T17:06:24;16.90;41.90
30865;DHT22;17574;49.418;11.038;2022-10-22T17:08:51;16.70;45.50
30865;DHT22;17574;49.418;11.038;2022-10-22T17:11:19;16.60;45.40
30865;DHT22;17574;49.418;11.038;2022-10-22T17:13:46;16.50;47.00
30865;DHT22;17574;49.418;11.038;2022-10-22T17:16:15;16.30;49.30